Yorkville, Illinois
Current Conditions -  °F | °C
As of 12:52 AM on Thursday 23 Oct 2014 (Local Time) from KARR Reporting Station
Haze Haze  
Wind Chill:   Ceiling: Unl
Heat Index:   Visibility: 6mi
Dew Point: -1°   Wind: 3mph
Humidity: 85%   Direction: 120°ESE
Pressure: 30.25"   Gusts: NA
Location:  41.64°N, 88.45°W
Report Text: KARR 230552Z AUTO 12003KT 6SM BR CLR 01/M01 A3025 RMK AO2 SLP248 T00111011 10089 20006 401501011 58007
Loading
Personal Weather Stations






























Interactive Weather Map
Tropical Storm Tracking
New forecast layout! Learn more

10-Day Weather Forecast

Advertisements
Track Severe Weather on mobile